Depesze METAR z lotnisk oddalonych od Rybnika do 200 kilometrów

LKMT - Ostrava/Mosnov, Czech Republic
Distance from station: SSW 55km
Aktualizacja: Wed, 22/09/2021 14:30 CEST
NOT Current
Mostly Cloudy
Mostly Cloudy
 Wind from N
Wiatr: N 11 km/h
Temperatura: 12°C
Punkt rosy: 8°C
Wilgotnosc: 77%
Cisnienie: 1024 hPa
Chmury: Mostly Cloudy
Widocznosc: 10 km
Chmury-opis: Partly Cloudy 610 m
Mostly Cloudy 1433 m
2021/09/22 12:30 LKMT 221230Z 01006KT 340V050 9999 SCT020 BKN047 12/08 Q1024 NOSIG
EPKT - Katowice/Pyrzowi, Poland
Distance from station: NE 58km
Aktualizacja: Wed, 22/09/2021 14:30 CEST
NOT Current
Mostly Cloudy
Mostly Cloudy
 Wind from NW
Wiatr: NW 11 km/h
Temperatura: 11°C
Punkt rosy: 7°C
Wilgotnosc: 77%
Cisnienie: 1023 hPa
Chmury: Mostly Cloudy
Widocznosc: 10 km
Chmury-opis: Mostly Cloudy 1463 m
2021/09/22 12:30 EPKT 221230Z 32006KT 290V350 9999 BKN048 11/07 Q1023
 
EPKK - Krakow/Balice, Poland
Distance from station: E 91km
Aktualizacja: Wed, 22/09/2021 14:30 CEST
NOT Current
Mostly Cloudy
Mostly Cloudy
 Wind from NW
Wiatr: NW 6 km/h
Temperatura: 11°C
Punkt rosy: 6°C
Wilgotnosc: 72%
Cisnienie: 1023 hPa
Chmury: Mostly Cloudy
Widocznosc: 10 km
Chmury-opis: Few Clouds 610 m
Mostly Cloudy 1402 m
2021/09/22 12:30 EPKK 221230Z 32003KT 210V360 9999 FEW020 BKN046 11/06 Q1023
LZZI - Zilina, Slovakia
Distance from station: S 95km
Aktualizacja: Wed, 22/09/2021 14:30 CEST
NOT Current
Few Clouds
Few Clouds
 Wind from N
Wiatr: N 11 km/h
Temperatura: 12°C
Punkt rosy: 6°C
Wilgotnosc: 67%
Cisnienie: 1023 hPa
Chmury: Few Clouds
Widocznosc: 10 km
Chmury-opis: Few Clouds 975 m
2021/09/22 12:30 LZZI 221230Z 35006KT 310V020 9999 FEW032 12/06 Q1023
 
LKKU - Kunovice, Czech Republic
Distance from station: SW 139km
Aktualizacja: Wed, 22/09/2021 14:00 CEST
NOT Current
Mostly Cloudy
Mostly Cloudy
 Wind from N
Wiatr: N 9 km/h
Temperatura: 12°C
Punkt rosy: 9°C
Wilgotnosc: 82%
Cisnienie: 1023 hPa
Chmury: Mostly Cloudy
Widocznosc: 10 km
Chmury-opis: Few Clouds 396 m
Partly Cloudy 853 m
Mostly Cloudy 1280 m
2021/09/22 12:00 LKKU 221200Z 36005KT 9999 FEW013 SCT028 BKN042 12/09 Q1023
EPWR - Wroclaw/Strachow, Poland
Distance from station: NW 163km
Aktualizacja: Wed, 22/09/2021 14:30 CEST
NOT Current
Mostly Cloudy
Mostly Cloudy
 Wind from NW
Wiatr: NW 13 km/h
Temperatura: 12°C
Punkt rosy: 9°C
Wilgotnosc: 82%
Cisnienie: 1025 hPa
Chmury: Mostly Cloudy
Widocznosc: 10 km
Chmury-opis: Few Clouds 427 m
Mostly Cloudy 610 m
2021/09/22 12:30 EPWR 221230Z 32007KT 9999 FEW014 BKN020 12/09 Q1025
 
LZSL - Sliac, Slovakia
Distance from station: SSE 168km
Aktualizacja: Wed, 09/06/2021 10:32 CEST
NOT Current
Few Clouds
Few Clouds
 Wind from SE
Wiatr: SE 7 km/h
Temperatura: 25°C
Punkt rosy: 11°C
Wilgotnosc: 42%
Cisnienie: 1017 hPa
Chmury: Few Clouds
Widocznosc: 10 km
Chmury-opis: Few Clouds 1219 m
2021/06/09 08:32 LZSL 090832Z 13004KT 9999 FEW040 25/11 Q1017
LZTT - Poprad/Tatry, Slovakia
Distance from station: SE 168km
Aktualizacja: Wed, 22/09/2021 14:30 CEST
NOT Current
Mostly Cloudy
Mostly Cloudy
 Wind from NNE
Wiatr: NNE 26 km/h
Temperatura: 10°C
Wind Chill: 7°C
Punkt rosy: 6°C
Wilgotnosc: 76%
Cisnienie: 1020 hPa
Chmury: Mostly Cloudy
Widocznosc: 10 km
Chmury-opis: Partly Cloudy 305 m
Mostly Cloudy 1006 m
2021/09/22 12:30 LZTT 221230Z 03014KT 360V060 9999 SCT010 BKN033 10/06 Q1020 NOSIG
 
LKTB - Brno/Turany, Czech Republic
Distance from station: SW 170km
Aktualizacja: Wed, 22/09/2021 14:55 CEST
NOT Current
Nearby showers, Mostly cloudy
Nearby showers, Mostly cloudy
 Wind from ENE
Wiatr: ENE 20 km/h
Temperatura: 15°C
Punkt rosy: 10°C
Wilgotnosc: 72%
Cisnienie: 1023 hPa
Kondycja: Nearby Showers
Chmury: Mostly Cloudy
Widocznosc: 10 km
Chmury-opis: Partly Cloudy 579 m
Mostly Cloudy 914 m
2021/09/22 12:55 LKTB 221255Z 06011KT 9999 VCSH SCT019 BKN030 15/10 Q1023 RMK REG QNH 1021
LZPP - Piestany, Slovakia
Distance from station: SSW 171km
Aktualizacja: Wed, 22/09/2021 14:30 CEST
NOT Current
Mostly Cloudy
Mostly Cloudy
 Wind from NNW
Wiatr: NNW 20 km/h
Temperatura: 15°C
Punkt rosy: 9°C
Wilgotnosc: 68%
Cisnienie: 1022 hPa
Chmury: Mostly Cloudy
Widocznosc: 10 km
Chmury-opis: Few Clouds 853 m
Mostly Cloudy 1433 m
2021/09/22 12:30 LZPP 221230Z 34011KT 9999 FEW028 BKN047 15/09 Q1022
 
EPLL - Lodz/Lublinek, Poland
Distance from station: NNE 191km
Aktualizacja: Wed, 22/09/2021 14:30 CEST
NOT Current
Mostly Cloudy
Mostly Cloudy
 Wind from NW
Wiatr: NW 11 km/h
Temperatura: 12°C
Punkt rosy: 6°C
Wilgotnosc: 67%
Cisnienie: 1023 hPa
Chmury: Mostly Cloudy
Widocznosc: 10 km
Chmury-opis: Partly Cloudy 732 m
Mostly Cloudy 1494 m
2021/09/22 12:30 EPLL 221230Z 32006KT 280V020 9999 SCT024 BKN049 12/06 Q1023
LKPD - Pardubice, Czech Republic
Distance from station: W 200km
Aktualizacja: Wed, 22/09/2021 14:30 CEST
NOT Current
Light rain, Showers, Mostly cloudy
Light rain, Showers, Mostly cloudy
 Wind from W
Wiatr: W 6 km/h
Temperatura: 12°C
Punkt rosy: 10°C
Wilgotnosc: 88%
Cisnienie: 1024 hPa
Kondycja: Light rain, Showers
Chmury: Mostly Cloudy
Widocznosc: 5 km
Chmury-opis: Few Clouds 610 m
Mostly Cloudy 1006 m
2021/09/22 12:30 LKPD 221230Z 28003KT 5000 -SHRA FEW020TCU BKN033 12/10 Q1024 RMK BLACK

Metar display script from Saratoga-Weather.org